• Join FlightAware (Why Join?)
  • Login
  • US Flag 
07:51AM EDT


 

Airport Tracker/Info


-or-


 

Live Flight TrackerFlight Track Log ✈ UAL759 ✈ 14-Jul-2013 ✈ KEWR - KORD

Flight Track Log - Related Links

Times and Time Zones

All times are in EDT time to prevent confusion due to time zone crossing. See the UAL759 flight status page for this flight to view local times or setup timezone preferences in your user account.

Time Position Orientation Groundspeed Altitude Reporting Facility
EDT Latitude Longitude Course Direction KTS MPH feet Rate Location/Type
08:08AM 40.6500 -74.1833 304° West 192 221 1,100  Level New York TRACON
08:11AM 40.9502 -74.4693 316° Northwest  Level FlightAware Approximate
08:11AM 40.7000 -74.3186 296° West 177 204 8,000  Level New York Center
08:12AM 41.0358 -74.5793 316° Northwest  Level FlightAware Approximate
08:12AM 40.7650 -74.3739 327° Northwest 228 262 10,500  Level New York Center
08:13AM 41.1233 -74.6833 North  Level FlightAware Approximate
08:13AM 40.8461 -74.4414 328° Northwest 301 346 12,100  Level New York Center
08:14AM 41.1799 -74.8098 304° West  Level FlightAware Approximate
08:14AM 40.9208 -74.5169 323° Northwest 356 410 14,300  Level New York Center
08:15AM 40.9942 -74.6364 309° West 369 425 16,700 1,920 Climbing New York Center
08:16AM 41.0611 -74.7531 307° West 389 448 18,300 1,680 Climbing New York Center
08:17AM 41.1200 -74.8556 307° West 403 464 20,100 1,740 Climbing New York Center
08:18AM 41.1906 -74.9811 307° West 408 470 21,800 1,560 Climbing New York Center
08:19AM 41.2633 -75.1072 308° West 419 482 23,200 1,440 Climbing New York Center
08:20AM 41.3356 -75.2361 307° West 424 488 24,800 1,560 Climbing New York Center
08:21AM 41.4136 -75.3686 308° West 438 504 26,400 1,320 Climbing New York Center
08:22AM 41.4933 -75.5153 306° West 443 510 27,500 1,380 Climbing New York Center
08:23AM 41.5322 -75.6842 287° West 455 524 29,200 1,620 Climbing New York Center
08:24AM 41.5764 -75.8233 293° West 455 524 30,800 1,500 Climbing New York Center
08:25AM 41.6217 -75.9794 291° West 460 529 32,200 1,380 Climbing New York Center
08:26AM 41.6667 -76.1383 291° West 460 529 33,600 1,320 Climbing New York Center
08:27AM 41.7072 -76.2972 289° West 455 524 35,000 1,140 Climbing New York Center
08:29AM 41.8031 -76.6497 290° West 438 504 37,500 900 Climbing Cleveland Center
08:30AM 41.8478 -76.8031 291° West 438 504 38,000 240 Climbing Cleveland Center
08:31AM 41.8881 -76.9569 289° West 438 504 38,000  Level Cleveland Center
08:32AM 41.9325 -77.1108 291° West 438 504 38,000  Level Cleveland Center
08:33AM 41.9747 -77.2678 290° West 438 504 38,000  Level Cleveland Center
08:34AM 42.0167 -77.4219 290° West 438 504 38,000  Level Cleveland Center
08:35AM 42.0564 -77.5794 289° West 438 504 38,000  Level Cleveland Center
08:36AM 42.0978 -77.7372 290° West 438 504 38,000  Level Cleveland Center
08:37AM 42.1369 -77.8922 289° West 438 504 38,000  Level Cleveland Center
08:38AM 42.1781 -78.0475 290° West 438 504 38,000  Level Cleveland Center
08:39AM 42.2189 -78.2028 290° West 438 504 38,000  Level Cleveland Center
08:40AM 42.2575 -78.3614 288° West 438 504 38,000  Level Cleveland Center
08:41AM 42.2981 -78.5197 289° West 438 504 38,000  Level Cleveland Center
08:42AM 42.3403 -78.6758 290° West 438 504 38,000  Level Cleveland Center
08:43AM 42.3781 -78.8319 288° West 438 504 38,000  Level Cleveland Center
08:44AM 42.4200 -78.9883 290° West 438 504 38,000  Level Cleveland Center
08:45AM 42.4597 -79.1478 289° West 438 504 38,000  Level Cleveland Center
08:46AM 42.4928 -79.3133 285° West 443 510 38,000  Level Cleveland Center
08:47AM 42.5050 -79.4819 276° West 449 517 38,000  Level Cleveland Center
08:48AM 42.5086 -79.6508 272° West 449 517 38,000  Level Cleveland Center
08:49AM 42.5181 -79.8197 274° West 449 517 38,000  Level Cleveland Center
08:50AM 42.5256 -80.0056 273° West 454 522 38,000  Level Cleveland Center
08:51AM 42.5325 -80.1775 273° West 454 522 38,000  Level Cleveland Center
08:52AM 42.5392 -80.3436 273° West 454 522 38,000  Level Cleveland Center
08:53AM 42.5456 -80.5156 273° West 459 528 38,000  Level Cleveland Center
08:54AM 42.5519 -80.6817 273° West 454 522 38,000  Level Cleveland Center
08:55AM 42.5600 -80.8511 274° West 454 522 38,000  Level Cleveland Center
08:56AM 42.5656 -81.0172 273° West 454 522 38,000  Level Cleveland Center
08:57AM 42.5692 -81.1922 272° West 459 528 38,000  Level Cleveland Center
08:58AM 42.5764 -81.3586 273° West 454 522 38,000  Level Cleveland Center
08:59AM 42.5939 -81.5253 278° West 454 522 38,000  Level Cleveland Center
09:00AM 42.6236 -81.6919 284° West 454 522 38,000  Level Cleveland Center
09:01AM 42.6511 -81.8506 283° West 449 517 38,000  Level Cleveland Center
09:02AM 42.6828 -82.0122 285° West 444 511 38,000  Level Cleveland Center
09:03AM 42.7117 -82.1825 283° West 450 518 38,000  Level Cleveland Center
09:04AM 42.7406 -82.3472 283° West 455 524 38,000  Level Cleveland Center
09:05AM 42.7567 -82.5203 277° West 455 524 38,000  Level Cleveland Center
09:06AM 42.7661 -82.6903 274° West 455 524 38,000 -420 Level Cleveland Center
09:07AM 42.7794 -82.8603 276° West 455 524 37,200 -1,140 Descending Cleveland Center
09:08AM 42.7925 -83.0333 276° West 455 524 35,800 -1,440 Descending Cleveland Center
09:09AM 42.8075 -83.2094 277° West 466 536 34,400 -1,380 Descending Cleveland Center
09:10AM 42.8181 -83.3856 275° West 466 536 33,100 -720 Descending Cleveland Center
09:11AM 42.8300 -83.5672 275° West 471 542 33,000 -60 Descending Cleveland Center
09:12AM 42.8400 -83.7433 274° West 476 548 33,000  Level Cleveland Center
09:13AM 42.8514 -83.9253 275° West 482 555 33,000  Level Cleveland Center
09:14AM 42.8586 -84.1042 273° West 482 555 33,000  Level Cleveland Center
09:15AM 42.8678 -84.2831 274° West 482 555 33,000  Level Cleveland Center
09:16AM 42.8764 -84.4247 275° West 477 549 33,000  Level Chicago Center
09:17AM 42.8731 -84.6047 269° West 477 549 33,000 -300 Level Chicago Center
09:18AM 42.8561 -84.7822 263° West 474 545 32,500 -540 Descending Chicago Center
09:19AM 42.8408 -84.9622 263° West 477 549 32,000 -300 Descending Chicago Center
09:20AM 42.8231 -85.1436 262° West 483 556 32,000 -360 Level Chicago Center
09:21AM 42.8017 -85.3606 262° West 483 556 31,300 -1,020 Descending Chicago Center
09:22AM 42.7800 -85.5431 261° West 484 557 30,000 -1,680 Descending Chicago Center
09:23AM 42.7467 -85.7228 256° West 487 560 27,900 -2,340 Descending Chicago Center
09:24AM 42.7150 -85.8964 256° West 477 549 25,300 -2,520 Descending Chicago Center
09:25AM 42.6842 -86.0667 256° West 465 535 22,700 -2,460 Descending Chicago Center
09:26AM 42.6542 -86.2311 256° West 452 520 20,300 -2,160 Descending Chicago Center
09:27AM 42.6253 -86.3847 256° West 425 489 18,300 -1,680 Descending Chicago Center
09:28AM 42.5969 -86.5339 256° West 411 473 16,900 -1,620 Descending Chicago Center
09:29AM 42.5697 -86.6786 256° West 398 458 15,100 -1,980 Descending Chicago Center
09:30AM 42.5308 -86.8450 252° West 385 443 12,900 -1,980 Descending Chicago Center
09:31AM 42.4933 -86.9781 249° West 379 436 11,100 -1,200 Descending Chicago Center
09:32AM 42.4581 -87.0989 248° West 348 400 10,500 -720 Descending Chicago Center
09:33AM 42.4272 -87.2058 249° West 308 354 9,700 -840 Descending Chicago Center
09:34AM 42.3881 -87.2972 240° Southwest 285 328 8,900 -660 Descending Chicago Center
09:36AM 42.3492 -87.4058 244° Southwest 280 322 8,400 -540 Descending Chicago Center
09:37AM 42.3117 -87.4972 241° Southwest 281 323 7,800 -660 Descending Chicago Center
09:38AM 42.2761 -87.5894 243° Southwest 279 321 7,100 -840 Descending Chicago Center
09:39AM 42.2222 -87.6475 219° Southwest 250 288 6,200 -900 Descending Chicago Center
09:40AM 42.1758 -87.6986 219° Southwest 218 251 5,300 -780 Descending Chicago Center
09:41AM 42.1322 -87.7469 219° Southwest 209 241 4,600 -720 Descending Chicago Center